This is the latest recevied weather packets stored in our database for station/object KG4WIV. If no packets are shown the sender has not sent any weather packets the latest 10 day(s).
| Time | Temp. | Humidity | Pressure | Rain* | Wind** | Luminosity | Snow |
|---|---|---|---|---|---|---|---|
| 1777360533 | 16.67° C | 70% | 1019 hPa | 0 mm | - | - | - |
| 1777358727 | 16.67° C | 72% | 1019.5 hPa | 0 mm | - | - | - |
| 1777356019 | 16.67° C | 72% | 1019.6 hPa | 0 mm | - | - | - |
| 1777353316 | 16.11° C | 75% | 1020.1 hPa | 0 mm | - | - | - |
| 1777351511 | 16.67° C | 74% | 1019.7 hPa | 0 mm | - | - | - |
| 1777350619 | 16.67° C | 73% | 1019.7 hPa | 0 mm | - | - | - |
| 1777344305 | 18.33° C | 68% | 1019.6 hPa | 0 mm | - | - | - |
| 1777342504 | 18.89° C | 66% | 1019.7 hPa | 0 mm | - | - | - |
| 1777339802 | 18.89° C | 65% | 1019.1 hPa | 0 mm | - | - | - |
| 1777331703 | 22.78° C | 55% | 1018.4 hPa | 0 mm | - | - | - |
| 1777325460 | 23.89° C | 53% | 1018.5 hPa | 0 mm | - | - | - |
| 1777324501 | 23.33° C | 54% | 1018.4 hPa | 0 mm | - | - | - |
| 1777318251 | 22.78° C | 58% | 1019.2 hPa | 0 mm | - | - | - |
| 1777316466 | 22.22° C | 59% | 1019.7 hPa | 0 mm | - | - | - |
| 1777313754 | 21.67° C | 60% | 1019.7 hPa | 0 mm | - | - | - |
| 1777312852 | 21.67° C | 60% | 1019.6 hPa | 0 mm | - | - | - |
| 1777303829 | 18.33° C | 68% | 1021.2 hPa | 0 mm | - | - | - |
| 1777300226 | 17.22° C | 70% | 1021.1 hPa | 0 mm | - | - | - |
| 1777289411 | 14.44° C | 79% | 1020.1 hPa | 0 mm | - | - | - |
| 1777284001 | 15.56° C | 81% | 1018.7 hPa | 0 mm | - | - | - |
| 1777279554 | 16.67° C | 79% | 1018.1 hPa | 0 mm | - | - | - |
* Rain latest hour (hover to see other rain measurements)
** Current wind speed in m/s (hover to see current wind gust speed)